createdAt,value
2022-10-25T00:01:36.885Z,-28.4
2022-10-25T00:03:37.971Z,-28.5
2022-10-25T00:05:39.100Z,-28.1
2022-10-25T00:07:40.107Z,-27.9
2022-10-25T00:09:41.306Z,-28.2
2022-10-25T00:11:43.119Z,-28.2
2022-10-25T00:15:45.886Z,-28.4
2022-10-25T00:17:47.482Z,-28
2022-10-25T00:19:48.496Z,-28.2
2022-10-25T00:21:49.559Z,-28.2
2022-10-25T00:23:50.904Z,-28.2
2022-10-25T00:27:53.398Z,-28.2
2022-10-25T00:29:55.177Z,-28.4
2022-10-25T00:31:56.070Z,-28.3
2022-10-25T00:33:57.212Z,-28.1
2022-10-25T00:35:58.633Z,-28.3
2022-10-25T00:37:59.685Z,-28.2
2022-10-25T00:44:04.160Z,-28.4
2022-10-25T00:46:05.447Z,-28.2
2022-10-25T00:48:07.156Z,-28.4
2022-10-25T00:50:08.868Z,-28.2
2022-10-25T00:52:10.393Z,-28.2
2022-10-25T00:54:11.957Z,-28.4
2022-10-25T00:56:12.989Z,-28.6
2022-10-25T00:58:14.288Z,-28.3
2022-10-25T01:00:15.889Z,-27.9
2022-10-25T01:04:18.813Z,-28.3
2022-10-25T01:08:21.753Z,-28.2
2022-10-25T01:10:23.374Z,-28.3
2022-10-25T01:12:24.278Z,-28.3
2022-10-25T01:14:25.937Z,-28.3
2022-10-25T01:16:27.467Z,-28.2
2022-10-25T01:18:28.892Z,-28.3
2022-10-25T01:20:29.812Z,-28.3
2022-10-25T01:24:32.364Z,-28.3
2022-10-25T01:26:33.944Z,-28
2022-10-25T01:28:35.283Z,-28.3
2022-10-25T01:30:37.019Z,-28.5
2022-10-25T01:32:38.180Z,-28.2
2022-10-25T01:34:39.427Z,-28
2022-10-25T01:36:41.179Z,-28.3
2022-10-25T01:38:42.389Z,-28.3
2022-10-25T01:40:43.541Z,-28.3
2022-10-25T01:42:44.809Z,-28.2
2022-10-25T01:44:46.276Z,-28.2
2022-10-25T01:46:48.123Z,-28.1
2022-10-25T01:54:54.824Z,-28.1
2022-10-25T01:56:56.590Z,-28.4
2022-10-25T01:58:57.715Z,-28
2022-10-25T02:00:59.167Z,-28.2
2022-10-25T02:03:00.227Z,-28.4
2022-10-25T02:05:01.655Z,-28.2
2022-10-25T02:07:03.396Z,-28.3
2022-10-25T02:09:04.441Z,-28.2
2022-10-25T02:11:05.995Z,-28.2
2022-10-25T02:13:07.537Z,-28
2022-10-25T02:15:08.892Z,-28.2
2022-10-25T02:17:10.603Z,-28
2022-10-25T02:19:12.078Z,-28.3
2022-10-25T02:19:55.931Z,-28.3
2022-10-25T02:23:59.186Z,-28.3
2022-10-25T02:26:01.057Z,-28.1
2022-10-25T02:28:02.813Z,-28.1
2022-10-25T02:30:03.868Z,-28.3
2022-10-25T02:34:06.709Z,-28.2
2022-10-25T02:36:08.251Z,-28.3
2022-10-25T02:38:09.190Z,-28.4
2022-10-25T02:42:11.588Z,-28.5
2022-10-25T02:48:15.171Z,-28.2
2022-10-25T02:50:16.372Z,-28.4
2022-10-25T02:52:17.796Z,-28.2
2022-10-25T02:54:19.277Z,-28.4
2022-10-25T02:56:20.443Z,-28
2022-10-25T02:58:21.437Z,-28.5
2022-10-25T03:00:22.418Z,-28.2
2022-10-25T03:02:23.515Z,-28.4
2022-10-25T03:04:24.559Z,-28.2
2022-10-25T03:06:26.082Z,-28.3
2022-10-25T03:10:28.917Z,-28.2
2022-10-25T03:12:30.695Z,-28.4
2022-10-25T03:14:32.282Z,-28.3
2022-10-25T03:18:34.661Z,-28
2022-10-25T03:20:36.149Z,-28.4
2022-10-25T03:24:38.708Z,-28.3
2022-10-25T03:26:39.899Z,-28.2
2022-10-25T03:28:41.420Z,-28.2
2022-10-25T03:30:42.715Z,-28
2022-10-25T03:32:44.167Z,-28.2
2022-10-25T03:34:45.617Z,-28.3
2022-10-25T03:38:48.652Z,-28.3
2022-10-25T03:40:50.372Z,-28
2022-10-25T03:42:51.875Z,-28
2022-10-25T03:44:52.904Z,-28.2
2022-10-25T03:46:53.931Z,-28.4
2022-10-25T03:48:55.527Z,-28.3
2022-10-25T03:50:57.129Z,-28.3
2022-10-25T03:52:58.416Z,-28.2
2022-10-25T03:57:01.115Z,-28.3
2022-10-25T03:59:02.373Z,-28.2
2022-10-25T04:01:04.052Z,-28.5
2022-10-25T04:05:07.646Z,-28.4
2022-10-25T04:07:09.275Z,-28.3
2022-10-25T04:09:10.822Z,-28.3
2022-10-25T04:11:12.667Z,-28.3
2022-10-25T04:13:13.896Z,-28.3
2022-10-25T04:15:15.208Z,-28.2
2022-10-25T04:17:16.599Z,-28.4
2022-10-25T04:19:18.478Z,-28.3
2022-10-25T04:21:19.905Z,-28.3
2022-10-25T04:27:24.445Z,-28.3
2022-10-25T04:29:26.201Z,-28.3
2022-10-25T04:31:28.021Z,-28.2
2022-10-25T04:33:29.017Z,-28.2
2022-10-25T04:35:30.083Z,-28.6
2022-10-25T04:37:31.668Z,-28.6
2022-10-25T04:39:33.093Z,-28.2
2022-10-25T04:43:35.511Z,-28.5
2022-10-25T04:45:36.624Z,-28.2
2022-10-25T04:47:38.275Z,-28
2022-10-25T04:49:39.466Z,-28.3
2022-10-25T04:55:42.455Z,-28.2
2022-10-25T04:57:44.320Z,-28.4
2022-10-25T04:59:45.538Z,-28.2
2022-10-25T05:01:47.009Z,-28.2
2022-10-25T05:03:48.333Z,-28.3
2022-10-25T05:05:49.257Z,-28.2
2022-10-25T05:07:50.456Z,-28.4
2022-10-25T05:09:51.424Z,-28.2
2022-10-25T05:11:52.935Z,-28.3
2022-10-25T05:13:54.237Z,-28.2
2022-10-25T05:15:55.256Z,-28.2
2022-10-25T05:17:56.730Z,-28.3
2022-10-25T05:19:57.807Z,-28.1
2022-10-25T05:21:59.630Z,-28.3
2022-10-25T05:24:01.699Z,-28.2
2022-10-25T05:26:02.476Z,-28.3
2022-10-25T05:28:04.362Z,-28.4
2022-10-25T05:32:07.328Z,-28.5
2022-10-25T05:34:08.409Z,-28.4
2022-10-25T05:36:09.353Z,-28.3
2022-10-25T05:38:10.913Z,-28.3
2022-10-25T05:40:12.612Z,-28.3
2022-10-25T05:42:14.271Z,-28.3
2022-10-25T05:44:15.512Z,-28.1
2022-10-25T05:46:16.730Z,-28.1
2022-10-25T05:48:17.725Z,-28.3
2022-10-25T05:54:21.369Z,-28.3
2022-10-25T05:56:22.602Z,-28.4
2022-10-25T05:58:24.453Z,-28.2
2022-10-25T06:00:26.236Z,-28
2022-10-25T06:02:27.986Z,-28
2022-10-25T06:04:29.314Z,-28.3
2022-10-25T06:06:31.096Z,-28.1
2022-10-25T06:08:32.567Z,-28.3
2022-10-25T06:10:34.364Z,-28.3
2022-10-25T06:12:35.668Z,-28.4
2022-10-25T06:14:36.755Z,-28.3
2022-10-25T06:18:39.233Z,-28.3
2022-10-25T06:22:41.624Z,-28.4
2022-10-25T06:24:42.823Z,-28
2022-10-25T06:26:44.089Z,-28.2
2022-10-25T06:28:45.787Z,-28.4
2022-10-25T06:30:47.286Z,-28.5
2022-10-25T06:32:48.988Z,-28.2
2022-10-25T06:34:50.199Z,-28.3
2022-10-25T06:36:51.387Z,-28.4
2022-10-25T06:38:53.027Z,-28.3
2022-10-25T06:40:54.584Z,-28.3
2022-10-25T06:42:55.864Z,-28
2022-10-25T06:44:57.157Z,-28.4
2022-10-25T06:47:16.256Z,-28.2
2022-10-25T06:49:00.252Z,-28.3
2022-10-25T06:51:01.583Z,-28.3
2022-10-25T06:53:03.116Z,-28.1
2022-10-25T06:55:04.347Z,-28.4
2022-10-25T06:57:05.731Z,-28.2
2022-10-25T06:59:07.229Z,-28.2
2022-10-25T07:01:08.860Z,-28.3
2022-10-25T07:03:10.522Z,-28.3
2022-10-25T07:07:13.287Z,-28.3
2022-10-25T07:09:14.858Z,-24.1
2022-10-25T07:11:16.123Z,-22
2022-10-25T07:13:17.681Z,-15.2
2022-10-25T07:19:22.744Z,-4.1
2022-10-25T07:21:23.868Z,53.1
2022-10-25T07:23:24.965Z,75.19
2022-10-25T07:25:26.753Z,82.2
2022-10-25T07:27:28.011Z,82.5
2022-10-25T07:29:29.212Z,-12.6
2022-10-25T07:33:31.835Z,82.7
2022-10-25T07:35:35.467Z,82.4
2022-10-25T07:37:33.608Z,82.2
2022-10-25T07:39:34.644Z,82.4
2022-10-25T07:41:36.429Z,38.4
2022-10-25T07:43:37.852Z,8.6
2022-10-25T07:45:38.920Z,10.1
2022-10-25T07:47:40.557Z,82.9
2022-10-25T07:49:41.409Z,13.1
2022-10-25T07:51:42.579Z,-18.1
2022-10-25T07:53:44.299Z,4.4
2022-10-25T07:55:54.031Z,82.3
2022-10-25T07:57:47.541Z,82.7
2022-10-25T07:59:49.065Z,82.6
2022-10-25T08:01:50.141Z,-10
2022-10-25T08:03:51.062Z,-15.8
2022-10-25T08:05:52.652Z,-10.8
2022-10-25T08:07:54.460Z,-12.3
2022-10-25T08:09:55.587Z,-3.1
2022-10-25T08:11:56.660Z,-10
2022-10-25T08:15:59.238Z,35.59
2022-10-25T08:18:00.921Z,82.2
2022-10-25T08:20:02.449Z,13.2
2022-10-25T08:22:04.213Z,9.5
2022-10-25T08:24:05.363Z,27.2
2022-10-25T08:26:07.033Z,7.1
2022-10-25T08:28:08.850Z,4.3
2022-10-25T08:32:12.169Z,-20.1
2022-10-25T08:34:13.534Z,-26.2
2022-10-25T08:36:15.272Z,-16.4
2022-10-25T08:38:16.886Z,-8
2022-10-25T08:42:19.877Z,3
2022-10-25T08:44:20.877Z,12.4
2022-10-25T08:46:21.926Z,25.7
2022-10-25T08:48:23.179Z,25.6
2022-10-25T08:50:24.047Z,12.2
2022-10-25T08:52:25.570Z,6.6
2022-10-25T08:54:26.941Z,7.3
2022-10-25T08:56:28.746Z,20.7
2022-10-25T08:58:29.799Z,82.1
2022-10-25T09:00:31.107Z,81.1
2022-10-25T09:02:33.019Z,81.1
2022-10-25T09:04:34.223Z,81
2022-10-25T09:05:17.944Z,80.9
2022-10-25T09:09:20.755Z,79.69
2022-10-25T09:11:22.444Z,79.1
2022-10-25T09:13:24.023Z,79.4
2022-10-25T09:15:25.016Z,78.69
2022-10-25T09:17:26.011Z,78.1
2022-10-25T09:19:26.984Z,77.4
2022-10-25T09:23:29.341Z,76.1
2022-10-25T09:25:30.886Z,75.69
2022-10-25T09:31:35.027Z,73.6
2022-10-25T09:33:35.876Z,73.1
2022-10-25T09:35:37.493Z,73.4
2022-10-25T09:37:38.729Z,72.19
2022-10-25T09:39:40.164Z,70.6
2022-10-25T09:41:41.769Z,71.5
2022-10-25T09:43:42.792Z,69.8
2022-10-25T09:45:43.919Z,70.19
2022-10-25T09:47:45.627Z,70.1
2022-10-25T09:53:49.406Z,65.3
2022-10-25T09:55:50.864Z,66.8
2022-10-25T09:57:52.005Z,63
2022-10-25T09:59:53.014Z,62.3
2022-10-25T10:01:53.910Z,63.9
2022-10-25T10:03:55.889Z,62.6
2022-10-25T10:05:56.528Z,62
2022-10-25T10:07:57.908Z,61.1
2022-10-25T10:09:59.334Z,59.1
2022-10-25T10:12:01.098Z,58.7
2022-10-25T10:14:03.013Z,57
2022-10-25T10:18:04.383Z,50.1
2022-10-25T10:20:05.295Z,53.2
2022-10-25T10:22:06.681Z,51.7
2022-10-25T10:24:07.731Z,49.8
2022-10-25T10:26:08.672Z,48.3
2022-10-25T10:28:10.248Z,46.7
2022-10-25T10:30:12.306Z,45.2
2022-10-25T10:34:15.461Z,45.2
2022-10-25T10:36:16.385Z,44.2
2022-10-25T10:38:18.096Z,40.09
2022-10-25T10:40:19.597Z,39.9
2022-10-25T10:44:22.447Z,36.4
2022-10-25T10:46:23.664Z,35.4
2022-10-25T10:48:25.074Z,33.9
2022-10-25T10:50:26.038Z,32.2
2022-10-25T10:52:26.989Z,31.6
2022-10-25T10:54:27.880Z,31.7
2022-10-25T10:56:29.202Z,32.3
2022-10-25T10:58:30.992Z,31.4
2022-10-25T11:00:32.599Z,25.6
2022-10-25T11:02:34.613Z,24.5
2022-10-25T11:06:37.392Z,22.3
2022-10-25T11:08:38.834Z,23.2
2022-10-25T11:10:40.485Z,21.7
2022-10-25T11:12:42.023Z,20.7
2022-10-25T11:14:43.743Z,20.4
2022-10-25T11:16:45.463Z,18
2022-10-25T11:18:47.043Z,15.7
2022-10-25T11:20:48.551Z,14.6
2022-10-25T11:22:50.236Z,13.8
2022-10-25T11:24:51.348Z,13.8
2022-10-25T11:26:52.326Z,13.1
2022-10-25T11:28:53.617Z,11.4
2022-10-25T11:30:54.715Z,11.9
2022-10-25T11:32:55.620Z,9.8
2022-10-25T11:34:57.183Z,9.39
2022-10-25T11:36:58.592Z,9.2
2022-10-25T11:39:00.157Z,11.4
2022-10-25T11:41:00.987Z,10.7
2022-10-25T11:43:02.756Z,8.8
2022-10-25T11:45:04.264Z,7.5
2022-10-25T11:49:07.076Z,-28.6
2022-10-25T11:51:08.791Z,-28.8
2022-10-25T11:53:09.790Z,-28.6
2022-10-25T11:55:11.403Z,-28.5
2022-10-25T12:01:15.402Z,-28.5
2022-10-25T12:03:16.889Z,-28.6
2022-10-25T12:05:18.614Z,-28.8
2022-10-25T12:07:20.298Z,-28.5
2022-10-25T12:09:21.981Z,-28.5
2022-10-25T12:11:23.676Z,-28.8
2022-10-25T12:13:25.754Z,-28.7
2022-10-25T12:15:27.050Z,-29
2022-10-25T12:17:28.883Z,-28.7
2022-10-25T12:19:30.451Z,-28.8
2022-10-25T12:21:32.183Z,-28.5
2022-10-25T12:23:33.158Z,-28.8
2022-10-25T12:25:34.460Z,-28.5
2022-10-25T12:27:35.577Z,-28.6
2022-10-25T12:31:38.243Z,-28.7
2022-10-25T12:33:39.339Z,-28.4
2022-10-25T12:37:44.082Z,-28.5
2022-10-25T12:39:44.052Z,-28.6
2022-10-25T12:41:45.732Z,-28.7
2022-10-25T12:43:47.353Z,-28.7
2022-10-25T12:45:49.015Z,-28.8
2022-10-25T12:47:50.796Z,-28.7
2022-10-25T12:49:52.526Z,-28.9
2022-10-25T12:51:53.698Z,-28.9
2022-10-25T12:53:54.965Z,-28.7
2022-10-25T12:59:58.363Z,-28.5
2022-10-25T13:02:00.362Z,-28.7
2022-10-25T13:04:01.442Z,-29
2022-10-25T13:06:02.804Z,-28.8
2022-10-25T13:08:04.026Z,-28.9
2022-10-25T13:10:05.737Z,-28.6
2022-10-25T13:12:07.532Z,-28.4
2022-10-25T13:14:09.109Z,-28.4
2022-10-25T13:16:10.570Z,-28.7
2022-10-25T13:20:12.560Z,-28.6
2022-10-25T13:22:13.926Z,-28.7
2022-10-25T13:24:15.044Z,-28.5
2022-10-25T13:26:16.112Z,-28.3
2022-10-25T13:30:19.615Z,-28.5
2022-10-25T13:32:20.912Z,-28.6
2022-10-25T13:34:21.814Z,-28.7
2022-10-25T13:36:23.484Z,-28.9
2022-10-25T13:40:26.108Z,-28.4
2022-10-25T13:42:27.772Z,-27.9
2022-10-25T13:44:29.239Z,-28.7
2022-10-25T13:46:30.280Z,-28.3
2022-10-25T13:48:31.644Z,-28.6
2022-10-25T13:50:34.075Z,-28.5
2022-10-25T13:52:35.857Z,-28.7
2022-10-25T13:56:38.178Z,-28.4
2022-10-25T13:58:39.778Z,-28.4
2022-10-25T14:00:40.584Z,-28.5
2022-10-25T14:02:42.184Z,-28.2
2022-10-25T14:04:43.612Z,-28.6
2022-10-25T14:08:46.512Z,-28.2
2022-10-25T14:12:49.252Z,-28.5
2022-10-25T14:14:50.309Z,-28.4
2022-10-25T14:16:51.863Z,-28.7
2022-10-25T14:18:53.219Z,-28.5
2022-10-25T14:24:58.053Z,-28.3
2022-10-25T14:26:59.739Z,-28.5
2022-10-25T14:29:01.226Z,-28.4
2022-10-25T14:31:02.426Z,-28.5
2022-10-25T14:33:04.100Z,-28.3
2022-10-25T14:35:05.816Z,-28.5
2022-10-25T14:37:06.961Z,-28.5
2022-10-25T14:39:08.479Z,-28.1
2022-10-25T14:41:10.135Z,-28.3
2022-10-25T14:43:11.670Z,-28.3
2022-10-25T14:45:12.825Z,-28.2
2022-10-25T14:47:13.792Z,-28.5
2022-10-25T14:49:15.046Z,-28.6
2022-10-25T14:51:16.288Z,-28.3
2022-10-25T14:53:17.401Z,-28.4
2022-10-25T14:55:18.465Z,-28.4
2022-10-25T14:57:19.577Z,-28.3
2022-10-25T14:59:20.649Z,-28.6
2022-10-25T15:01:22.094Z,-28.6
2022-10-25T15:03:23.292Z,-28.5
2022-10-25T15:05:24.738Z,-28.5
2022-10-25T15:07:26.210Z,-28.5
2022-10-25T15:11:28.350Z,-28.5
2022-10-25T15:13:29.620Z,-28.3
2022-10-25T15:15:31.314Z,-28.6
2022-10-25T15:17:32.623Z,-28.6
2022-10-25T15:23:35.919Z,-28.6
2022-10-25T15:25:37.348Z,-28.6
2022-10-25T15:27:39.090Z,-28.6
2022-10-25T15:29:40.282Z,-28.6
2022-10-25T15:33:43.256Z,-28.2
2022-10-25T15:35:44.255Z,-29.1
2022-10-25T15:37:45.079Z,-28.8
2022-10-25T15:39:46.232Z,-28.8
2022-10-25T15:41:47.632Z,-28.6
2022-10-25T15:43:49.376Z,-28.4
2022-10-25T15:45:50.767Z,-28.7
2022-10-25T15:47:51.771Z,-28.6
2022-10-25T15:49:53.114Z,-28.8
2022-10-25T15:51:54.162Z,-28.8
2022-10-25T15:54:39.229Z,-28.7
2022-10-25T16:00:43.376Z,-28.6
2022-10-25T16:02:45.293Z,-28.9
2022-10-25T16:04:46.266Z,-28.6
2022-10-25T16:06:48.067Z,-28.7
2022-10-25T16:08:49.721Z,-28.4
2022-10-25T16:10:51.386Z,-28.7
2022-10-25T16:12:55.715Z,-28.6
2022-10-25T16:14:53.261Z,-28.6
2022-10-25T16:16:54.354Z,-28.7
2022-10-25T16:18:56.921Z,-28.5
2022-10-25T16:20:57.447Z,-28.6
2022-10-25T16:22:58.408Z,-28.4
2022-10-25T16:25:00.247Z,-28.5
2022-10-25T16:27:01.962Z,-28.6
2022-10-25T16:29:03.406Z,-28.5
2022-10-25T16:31:05.010Z,-28.4
2022-10-25T16:33:06.649Z,-28.6
2022-10-25T16:35:08.479Z,-28.3
2022-10-25T16:37:11.800Z,-28.3
2022-10-25T16:43:13.806Z,-28.3
2022-10-25T16:45:15.318Z,-28.4
2022-10-25T16:47:17.165Z,-28.4
2022-10-25T16:49:18.642Z,-28.4
2022-10-25T16:51:20.299Z,-28.3
2022-10-25T16:53:21.510Z,-28.3
2022-10-25T16:55:22.989Z,-28.3
2022-10-25T16:57:24.671Z,-28.3
2022-10-25T16:59:25.817Z,-28.4
2022-10-25T17:01:27.374Z,-28.3
2022-10-25T17:03:28.586Z,-28
2022-10-25T17:05:30.056Z,-28.4
2022-10-25T17:07:31.269Z,-28.4
2022-10-25T17:09:32.490Z,-28.3
2022-10-25T17:11:33.732Z,-28.3
2022-10-25T17:13:35.533Z,-28.2
2022-10-25T17:15:37.258Z,-28.4
2022-10-25T17:19:40.812Z,-28.5
2022-10-25T17:21:42.662Z,-28.5
2022-10-25T17:23:43.615Z,-28.2
2022-10-25T17:25:44.953Z,-28.4
2022-10-25T17:27:46.198Z,-28.3
2022-10-25T17:29:46.972Z,-28.3
2022-10-25T17:31:48.018Z,-28.3
2022-10-25T17:33:48.991Z,-28.2
2022-10-25T17:35:50.190Z,-28.5
2022-10-25T17:41:55.028Z,-28.4
2022-10-25T17:43:56.930Z,-28
2022-10-25T17:45:57.975Z,-28.4
2022-10-25T17:47:59.491Z,-28.4
2022-10-25T17:50:00.797Z,-28.4
2022-10-25T17:52:02.524Z,-28.5
2022-10-25T17:56:05.317Z,-28.2
2022-10-25T17:58:07.167Z,-28.3
2022-10-25T18:02:09.753Z,-28.2
2022-10-25T18:04:11.422Z,-28.2
2022-10-25T18:06:13.009Z,-28.4
2022-10-25T18:08:14.189Z,-28.4
2022-10-25T18:10:16.036Z,-28.2
2022-10-25T18:12:17.809Z,-28.6
2022-10-25T18:14:18.912Z,-28.3
2022-10-25T18:16:20.157Z,-28.2
2022-10-25T18:18:21.984Z,-28.3
2022-10-25T18:20:23.918Z,-28.3
2022-10-25T18:24:26.896Z,-28.6
2022-10-25T18:26:28.285Z,-28.2
2022-10-25T18:28:29.823Z,-28.2
2022-10-25T18:30:31.520Z,-28.3
2022-10-25T18:32:35.237Z,-28
2022-10-25T18:34:34.138Z,-28.5
2022-10-25T18:38:37.572Z,-28.4
2022-10-25T18:40:39.481Z,-28.3
2022-10-25T18:42:40.501Z,-28.4
2022-10-25T18:44:41.980Z,-28.3
2022-10-25T18:50:45.260Z,-28
2022-10-25T18:54:48.573Z,-28.3
2022-10-25T18:56:49.669Z,-28.3
2022-10-25T18:58:50.773Z,-28.3
2022-10-25T19:00:52.061Z,-28.4
2022-10-25T19:04:55.229Z,-28.4
2022-10-25T19:06:56.508Z,-28.3
2022-10-25T19:08:58.013Z,-28.4
2022-10-25T19:10:59.066Z,-28.3
2022-10-25T19:13:00.564Z,-28.3
2022-10-25T19:15:02.202Z,-28.4
2022-10-25T19:17:03.379Z,-28.5
2022-10-25T19:19:04.496Z,-27.9
2022-10-25T19:21:05.507Z,-28.2
2022-10-25T19:23:07.435Z,-28.3
2022-10-25T19:25:09.194Z,-28.3
2022-10-25T19:27:10.843Z,-28
2022-10-25T19:29:12.462Z,-28.3
2022-10-25T19:31:14.134Z,-28.3
2022-10-25T19:33:15.949Z,-28.5
2022-10-25T19:37:19.130Z,-28.5
2022-10-25T19:39:20.327Z,-28.1
2022-10-25T19:41:22.105Z,-28.3
2022-10-25T19:43:23.283Z,-28.3
2022-10-25T19:49:27.965Z,-27.8
2022-10-25T19:51:29.228Z,-28.4
2022-10-25T19:53:30.942Z,-28.4
2022-10-25T19:55:31.971Z,-28.4
2022-10-25T19:57:33.788Z,-28.3
2022-10-25T19:59:35.229Z,-28.2
2022-10-25T20:01:36.879Z,-28.3
2022-10-25T20:03:38.088Z,-28.2
2022-10-25T20:05:39.749Z,-28.2
2022-10-25T20:07:40.835Z,-28.2
2022-10-25T20:09:42.027Z,-28.2
2022-10-25T20:11:43.339Z,-28.2
2022-10-25T20:13:52.861Z,-28.3
2022-10-25T20:15:46.161Z,-28
2022-10-25T20:17:47.516Z,-28.3
2022-10-25T20:19:48.490Z,-28.3
2022-10-25T20:21:50.311Z,-28.2
2022-10-25T20:23:52.228Z,-27.9
2022-10-25T20:25:53.431Z,-28.4
2022-10-25T20:27:54.762Z,-28.2
2022-10-25T20:30:03.916Z,-28.3
2022-10-25T20:31:57.155Z,-28
2022-10-25T20:33:58.833Z,-28.2
2022-10-25T20:35:59.839Z,-28.2
2022-10-25T20:38:01.106Z,-28.5
2022-10-25T20:40:02.964Z,-28.3
2022-10-25T20:42:04.500Z,-28.2
2022-10-25T20:48:08.874Z,-28.2
2022-10-25T20:50:10.091Z,-28.3
2022-10-25T20:52:11.890Z,-28.4
2022-10-25T20:54:13.481Z,-28
2022-10-25T20:56:15.337Z,-28.2
2022-10-25T20:58:16.835Z,-28.3
2022-10-25T21:00:19.761Z,-28.4
2022-10-25T21:04:25.738Z,-28.3
2022-10-25T21:08:24.452Z,-28.1
2022-10-25T21:12:26.593Z,-28.5
2022-10-25T21:14:28.268Z,-28.2
2022-10-25T21:20:32.360Z,-28.3
2022-10-25T21:22:34.303Z,-28.2
2022-10-25T21:26:37.481Z,-28.1
2022-10-25T21:28:38.975Z,-28.1
2022-10-25T21:30:40.069Z,-28.6
2022-10-25T21:32:41.164Z,-28.2
2022-10-25T21:34:42.522Z,-28.2
2022-10-25T21:36:44.207Z,-28.3
2022-10-25T21:40:47.250Z,-28.3
2022-10-25T21:42:48.494Z,-28.5
2022-10-25T21:44:49.845Z,-28.2
2022-10-25T21:46:50.802Z,-28.5
2022-10-25T21:50:53.408Z,-28
2022-10-25T21:52:54.547Z,-28.3
2022-10-25T21:54:56.047Z,-28.4
2022-10-25T21:56:57.338Z,-28.3
2022-10-25T22:00:59.651Z,-28.3
2022-10-25T22:03:01.051Z,-28.4
2022-10-25T22:05:02.851Z,-28.5
2022-10-25T22:07:03.899Z,-28.4
2022-10-25T22:09:05.652Z,-28.4
2022-10-25T22:11:07.196Z,-28.7
2022-10-25T22:13:08.313Z,-28.3
2022-10-25T22:15:09.381Z,-28.4
2022-10-25T22:17:11.315Z,-28.2
2022-10-25T22:19:13.212Z,-28.3
2022-10-25T22:21:14.747Z,-28.2
2022-10-25T22:23:16.016Z,-28.1
2022-10-25T22:29:20.855Z,-28.4
2022-10-25T22:31:22.656Z,-28.3
2022-10-25T22:33:24.608Z,-28.3
2022-10-25T22:35:26.253Z,-28.2
2022-10-25T22:37:27.850Z,-28.3
2022-10-25T22:40:12.628Z,-28.3
2022-10-25T22:42:14.547Z,-28.5
2022-10-25T22:44:15.859Z,-28.3
2022-10-25T22:46:17.458Z,-28.3
2022-10-25T22:48:18.495Z,-28.4
2022-10-25T22:50:20.241Z,-28.3
2022-10-25T22:52:22.004Z,-28.2
2022-10-25T22:54:23.739Z,-28.5
2022-10-25T22:56:24.819Z,-28.3
2022-10-25T22:58:25.795Z,-28.2
2022-10-25T23:00:27.817Z,-28.2
2022-10-25T23:02:29.444Z,-28.4
2022-10-25T23:04:30.860Z,-28.5
2022-10-25T23:06:32.529Z,-28.3
2022-10-25T23:10:35.237Z,-28.3
2022-10-25T23:12:36.669Z,-28.1
2022-10-25T23:14:38.321Z,-28.3
2022-10-25T23:16:39.593Z,-28.2
2022-10-25T23:18:40.879Z,-28.3
2022-10-25T23:20:42.251Z,-28.3
2022-10-25T23:22:43.796Z,-28.3
2022-10-25T23:24:45.111Z,-28.1
2022-10-25T23:26:46.466Z,-28.1
2022-10-25T23:28:48.324Z,-28.4
2022-10-25T23:30:49.782Z,-28.3
2022-10-25T23:32:59.523Z,-28.3
2022-10-25T23:34:53.758Z,-28
2022-10-25T23:36:54.102Z,-28
2022-10-25T23:38:55.307Z,-28.5
2022-10-25T23:40:56.701Z,-28.3
2022-10-25T23:42:58.448Z,-28
2022-10-25T23:45:00.370Z,-28.4
2022-10-25T23:47:01.843Z,-28.3
2022-10-25T23:49:03.212Z,-28.3
2022-10-25T23:51:04.899Z,-28.2
2022-10-25T23:53:06.294Z,-28.5
2022-10-25T23:55:07.839Z,-28.2
